Time;durP1;ratioP1;P1;durP2;ratioP2;P2;SDS_P1;SDS_P2;PMS_P1;PMS_P2;Temp;Humidity;BMP_temperature;BMP_pressure;BME280_temperature;BME280_humidity;BME280_pressure;Samples;Min_cycle;Max_cycle;Signal;HPM_P1;HPM_P2
2021/01/03 00:01:52;;;;;;;;;;;;;;;-3.22;100.00;100996.50;5052846;28;19951;-69
2021/01/03 00:04:18;;;;;;;;;;;;;;;-3.17;100.00;100998.19;5052987;28;20023;-69
2021/01/03 00:06:44;;;;;;;;;;;;;;;-3.12;100.00;100997.19;5052598;28;19928;-69
2021/01/03 00:09:10;;;;;;;;;;;;;;;-3.16;100.00;100991.97;5052276;28;20417;-69
2021/01/03 00:11:37;;;;;;;;;;;;;;;-3.22;100.00;100990.31;5052768;28;19948;-69
2021/01/03 00:14:03;;;;;;;;;;;;;;;-3.13;100.00;100997.22;5052747;28;19956;-70
2021/01/03 00:16:29;;;;;;;;;;;;;;;-3.10;100.00;101000.69;5052449;28;19925;-69
2021/01/03 00:18:55;;;;;;;;;;;;;;;-3.06;100.00;101001.50;5052250;28;19931;-69
2021/01/03 00:21:21;;;;;;;;;;;;;;;-3.02;100.00;100997.88;5052539;28;19931;-69
2021/01/03 00:23:46;;;;;;;;;;;;;;;-2.94;100.00;101008.34;5052520;28;20408;-69
2021/01/03 00:26:12;;;;;;;;;;;;;;;-2.84;100.00;101012.56;5052307;28;19924;-69
2021/01/03 00:28:39;;;;;;;;;;;;;;;-2.74;100.00;101013.22;5052416;28;19928;-69
2021/01/03 00:31:05;;;;;;;;;;;;;;;-2.68;100.00;101014.91;5052284;28;19960;-69
2021/01/03 00:33:30;;;;;;;;;;;;;;;-2.63;100.00;101016.53;5052394;28;19940;-69
2021/01/03 00:35:56;;;;;;;;;;;;;;;-2.58;100.00;101020.00;5051877;28;19979;-69
2021/01/03 00:38:22;;;;;;;;;;;;;;;-2.55;100.00;101019.91;5052617;28;20012;-69
2021/01/03 00:40:48;;;;;;;;;;;;;;;-2.49;100.00;101012.72;5052230;28;19929;-69
2021/01/03 00:43:14;;;;;;;;;;;;;;;-2.49;100.00;101007.38;5051121;28;20266;-70
2021/01/03 00:45:41;;;;;;;;;;;;;;;-2.48;100.00;100996.72;5052018;28;20437;-69
2021/01/03 00:48:08;;;;;;;;;;;;;;;-2.49;100.00;100996.75;5051968;28;20030;-70
2021/01/03 00:50:34;;;;;;;;;;;;;;;-2.56;100.00;100996.03;5051978;28;20460;-69
2021/01/03 00:53:00;;;;;;;;;;;;;;;-2.60;100.00;100989.88;5051905;28;19956;-69
2021/01/03 00:55:26;;;;;;;;;;;;;;;-2.65;100.00;100989.13;5051759;28;19960;-69
2021/01/03 00:57:51;;;;;;;;;;;;;;;-2.67;100.00;100988.28;5051553;28;20028;-69
2021/01/03 01:00:21;;;;;;;;;;;;;;;-2.73;100.00;100985.75;5051871;28;20354;-69
2021/01/03 01:02:47;;;;;;;;;;;;;;;-2.80;100.00;100977.03;5051723;28;19960;-69
2021/01/03 01:05:14;;;;;;;;;;;;;;;-2.81;100.00;100979.75;5051789;28;19936;-69
2021/01/03 01:07:41;;;;;;;;;;;;;;;-2.84;100.00;100974.50;5051492;28;19972;-69
2021/01/03 01:10:08;;;;;;;;;;;;;;;-2.90;100.00;100960.44;5051621;28;20016;-69
2021/01/03 01:12:34;;;;;;;;;;;;;;;-2.89;100.00;100959.50;5051387;28;20026;-69
2021/01/03 01:15:00;;;;;;;;;;;;;;;-2.88;100.00;100963.91;5051506;28;19935;-69
2021/01/03 01:17:26;;;;;;;;;;;;;;;-2.81;100.00;100971.75;5051306;28;19924;-69
2021/01/03 01:19:52;;;;;;;;;;;;;;;-2.76;100.00;100972.53;5050375;28;19924;-69
2021/01/03 01:22:18;;;;;;;;;;;;;;;-2.74;100.00;100970.72;5051645;28;19967;-69
2021/01/03 01:24:44;;;;;;;;;;;;;;;-2.71;100.00;100976.84;5048281;28;19932;-69
2021/01/03 01:27:10;;;;;;;;;;;;;;;-2.69;100.00;100979.47;5051328;28;19936;-69
2021/01/03 01:29:36;;;;;;;;;;;;;;;-2.63;100.00;100979.34;5051075;28;19925;-70
2021/01/03 01:32:01;;;;;;;;;;;;;;;-2.62;100.00;100983.75;5051381;28;20398;-69
2021/01/03 01:34:27;;;;;;;;;;;;;;;-2.61;100.00;100976.63;5051442;28;20041;-70
2021/01/03 01:36:54;;;;;;;;;;;;;;;-2.62;100.00;100974.88;5050995;28;19928;-69
2021/01/03 01:39:20;;;;;;;;;;;;;;;-2.64;100.00;100966.94;5051376;28;20008;-69
2021/01/03 01:41:45;;;;;;;;;;;;;;;-2.65;100.00;100970.50;5050121;28;19932;-69
2021/01/03 01:44:11;;;;;;;;;;;;;;;-2.67;100.00;100972.34;5051364;28;19960;-69
2021/01/03 01:46:39;;;;;;;;;;;;;;;-2.70;100.00;100967.06;5051005;28;19925;-69
2021/01/03 01:49:04;;;;;;;;;;;;;;;-2.72;100.00;100964.44;5051020;28;19964;-69
2021/01/03 01:51:34;;;;;;;;;;;;;;;-2.70;100.00;100977.69;5051273;28;19924;-69
2021/01/03 01:54:03;;;;;;;;;;;;;;;-2.76;100.00;100973.41;5051107;28;20456;-69
2021/01/03 01:56:32;;;;;;;;;;;;;;;-2.77;100.00;100971.66;5050906;28;20405;-69
2021/01/03 01:59:01;;;;;;;;;;;;;;;-2.76;100.00;100972.53;5051105;28;20015;-69
2021/01/03 02:01:30;;;;;;;;;;;;;;;-2.79;100.00;100960.19;5051188;28;20043;-69
2021/01/03 02:04:00;;;;;;;;;;;;;;;-2.82;100.00;100954.94;5051006;28;19925;-69
2021/01/03 02:06:30;;;;;;;;;;;;;;;-2.81;100.00;100961.13;5050916;28;20508;-69
2021/01/03 02:08:59;;;;;;;;;;;;;;;-2.81;100.00;100953.16;5050747;28;20416;-69
2021/01/03 02:11:27;;;;;;;;;;;;;;;-2.80;100.00;100939.84;5050976;28;19925;-69
2021/01/03 02:13:55;;;;;;;;;;;;;;;-2.80;100.00;100937.19;5051020;28;19960;-69
2021/01/03 02:16:22;;;;;;;;;;;;;;;-2.79;100.00;100938.94;5050690;28;20010;-69
2021/01/03 02:18:49;;;;;;;;;;;;;;;-2.80;100.00;100944.28;5050824;28;19931;-69
2021/01/03 02:21:18;;;;;;;;;;;;;;;-2.79;100.00;100948.66;5050964;28;20032;-69
2021/01/03 02:23:48;;;;;;;;;;;;;;;-2.80;100.00;100941.63;5050900;28;20002;-69
2021/01/03 02:26:16;;;;;;;;;;;;;;;-2.82;100.00;100940.78;5050239;28;20005;-69
2021/01/03 02:28:43;;;;;;;;;;;;;;;-2.85;100.00;100936.41;5050744;28;19932;-69
2021/01/03 02:31:11;;;;;;;;;;;;;;;-2.80;100.00;100934.53;5052049;28;20041;-69
2021/01/03 02:33:38;;;;;;;;;;;;;;;-2.75;100.00;100923.81;5053446;28;20015;-69
2021/01/03 02:36:07;;;;;;;;;;;;;;;-2.76;100.00;100920.25;5054327;28;19987;-69
2021/01/03 02:38:34;;;;;;;;;;;;;;;-2.73;100.00;100916.66;5054507;28;20015;-69
2021/01/03 02:41:00;;;;;;;;;;;;;;;-2.74;100.00;100922.88;5054294;28;20025;-69
2021/01/03 02:43:26;;;;;;;;;;;;;;;-2.75;100.00;100915.84;5053154;28;19933;-69
2021/01/03 02:45:53;;;;;;;;;;;;;;;-2.74;100.00;100928.19;5054108;28;20019;-69
2021/01/03 02:48:21;;;;;;;;;;;;;;;-2.74;100.00;100931.75;5054493;28;19953;-69
2021/01/03 02:50:47;;;;;;;;;;;;;;;-2.72;100.00;100937.00;5054270;28;19925;-69
2021/01/03 02:53:12;;;;;;;;;;;;;;;-2.70;100.00;100929.88;5054416;28;19925;-69
2021/01/03 02:55:38;;;;;;;;;;;;;;;-2.67;100.00;100926.25;5054082;28;20001;-68
2021/01/03 02:58:04;;;;;;;;;;;;;;;-2.63;100.00;100925.28;5054115;28;20279;-69
2021/01/03 03:00:32;;;;;;;;;;;;;;;-2.62;100.00;100927.94;5053884;28;19960;-69
2021/01/03 03:02:58;;;;;;;;;;;;;;;-2.54;100.00;100925.97;5054043;28;19932;-68
2021/01/03 03:05:24;;;;;;;;;;;;;;;-2.48;100.00;100918.75;5054092;28;20023;-68
2021/01/03 03:07:50;;;;;;;;;;;;;;;-2.44;100.00;100923.09;5053881;28;20007;-69
2021/01/03 03:10:16;;;;;;;;;;;;;;;-2.43;100.00;100933.69;5053941;28;19964;-68
2021/01/03 03:12:46;;;;;;;;;;;;;;;-2.38;100.00;100941.53;5054007;28;20416;-68
2021/01/03 03:15:12;;;;;;;;;;;;;;;-2.32;100.00;100944.03;5053880;28;20445;-68
2021/01/03 03:17:39;;;;;;;;;;;;;;;-2.29;100.00;100940.44;5053524;28;20086;-69
2021/01/03 03:20:05;;;;;;;;;;;;;;;-2.27;100.00;100942.16;5053535;28;19970;-69
2021/01/03 03:22:31;;;;;;;;;;;;;;;-2.24;100.00;100936.75;5053850;28;20019;-69
2021/01/03 03:24:57;;;;;;;;;;;;;;;-2.23;100.00;100930.53;5053707;28;19956;-68
2021/01/03 03:27:23;;;;;;;;;;;;;;;-2.19;100.00;100926.00;5053605;28;20397;-68
2021/01/03 03:29:49;;;;;;;;;;;;;;;-2.20;100.00;100925.13;5053556;28;19925;-69
2021/01/03 03:32:14;;;;;;;;;;;;;;;-2.20;100.00;100927.78;5050310;28;19925;-68
2021/01/03 03:34:41;;;;;;;;;;;;;;;-2.19;100.00;100932.19;5053748;28;20413;-69
2021/01/03 03:37:07;;;;;;;;;;;;;;;-2.15;100.00;100937.44;5053031;28;19987;-68
2021/01/03 03:39:33;;;;;;;;;;;;;;;-2.13;100.00;100938.28;5053293;28;19924;-69
2021/01/03 03:41:59;;;;;;;;;;;;;;;-2.12;100.00;100932.91;5052728;28;19924;-69
2021/01/03 03:44:26;;;;;;;;;;;;;;;-2.10;100.00;100930.22;5053075;28;20588;-68
2021/01/03 03:46:53;;;;;;;;;;;;;;;-2.10;100.00;100930.22;5053062;28;19956;-68
2021/01/03 03:49:18;;;;;;;;;;;;;;;-2.08;100.00;100929.25;5052092;28;20359;-68
2021/01/03 03:51:45;;;;;;;;;;;;;;;-2.06;100.00;100924.78;5053208;28;19925;-68
2021/01/03 03:54:11;;;;;;;;;;;;;;;-2.05;100.00;100929.16;5052798;28;19964;-68
2021/01/03 03:56:37;;;;;;;;;;;;;;;-2.04;100.00;100920.28;5052824;28;19925;-69
2021/01/03 03:59:02;;;;;;;;;;;;;;;-2.03;100.00;100911.41;5053022;28;19929;-68
2021/01/03 04:01:35;;;;;;;;;;;;;;;-2.03;100.00;100910.53;5053064;28;19925;-68
2021/01/03 04:04:01;;;;;;;;;;;;;;;-2.04;100.00;100903.47;5053012;28;19925;-69
2021/01/03 04:06:27;;;;;;;;;;;;;;;-2.04;100.00;100893.69;5052704;28;19925;-68
2021/01/03 04:08:53;;;;;;;;;;;;;;;-2.06;100.00;100892.88;5052793;28;20425;-68
2021/01/03 04:11:19;;;;;;;;;;;;;;;-2.02;100.00;100888.31;5052796;28;19948;-69
2021/01/03 04:13:45;;;;;;;;;;;;;;;-2.00;100.00;100905.13;5052543;28;19999;-68
2021/01/03 04:16:11;;;;;;;;;;;;;;;-1.97;100.00;100882.88;5052563;28;20283;-69
2021/01/03 04:18:37;;;;;;;;;;;;;;;-1.94;100.00;100888.97;5052679;28;20038;-69
2021/01/03 04:21:03;;;;;;;;;;;;;;;-1.92;100.00;100887.16;5052478;28;20382;-69
2021/01/03 04:23:29;;;;;;;;;;;;;;;-1.89;100.00;100895.06;5052667;28;19925;-68
2021/01/03 04:25:56;;;;;;;;;;;;;;;-1.86;100.00;100897.66;5052204;28;19925;-69
2021/01/03 04:28:22;;;;;;;;;;;;;;;-1.85;100.00;100899.38;5052513;28;20398;-69
2021/01/03 04:30:47;;;;;;;;;;;;;;;-1.78;100.00;100896.56;5052383;28;19932;-68
2021/01/03 04:33:13;;;;;;;;;;;;;;;-1.75;100.00;100892.03;5052166;28;20022;-69
2021/01/03 04:35:39;;;;;;;;;;;;;;;-1.70;100.00;100891.91;5051001;28;20402;-69
2021/01/03 04:38:05;;;;;;;;;;;;;;;-1.66;100.00;100893.56;5052136;28;19925;-69
2021/01/03 04:40:31;;;;;;;;;;;;;;;-1.62;100.00;100891.69;5051122;28;19925;-69
2021/01/03 04:43:00;;;;;;;;;;;;;;;-1.58;100.00;100896.88;5052185;28;19931;-69
2021/01/03 04:45:28;;;;;;;;;;;;;;;-1.55;100.00;100896.81;5052144;28;20016;-69
2021/01/03 04:47:55;;;;;;;;;;;;;;;-1.50;100.00;100898.47;5051961;28;19964;-68
2021/01/03 04:50:31;;;;;;;;;;;;;;;-1.48;100.00;100897.50;5051917;28;19952;-68
2021/01/03 04:53:01;;;;;;;;;;;;;;;-1.46;100.00;100893.00;5051998;28;19971;-69
2021/01/03 04:55:28;;;;;;;;;;;;;;;-1.43;100.00;100894.69;5051881;28;19971;-69
2021/01/03 04:58:12;;;;;;;;;;;;;;;-1.43;100.00;100892.03;5051632;28;20070;-68
2021/01/03 05:00:42;;;;;;;;;;;;;;;-1.43;100.00;100890.25;5051730;28;19964;-69
2021/01/03 05:03:35;;;;;;;;;;;;;;;-1.43;100.00;100882.28;5051795;28;19925;-69
2021/01/03 05:06:05;;;;;;;;;;;;;;;-1.40;100.00;100886.63;5051683;28;20016;-69
2021/01/03 05:08:33;;;;;;;;;;;;;;;-1.38;100.00;100887.44;5051848;28;20389;-68
2021/01/03 05:11:01;;;;;;;;;;;;;;;-1.36;100.00;100882.97;5051426;28;19964;-69
2021/01/03 05:13:32;;;;;;;;;;;;;;;-1.33;100.00;100884.66;5051714;28;20016;-68
2021/01/03 05:15:59;;;;;;;;;;;;;;;-1.31;100.00;100881.03;5051347;28;19988;-68
2021/01/03 05:18:25;;;;;;;;;;;;;;;-1.30;100.00;100880.09;5051606;28;20027;-68
2021/01/03 05:20:55;;;;;;;;;;;;;;;-1.29;100.00;100878.34;5050423;28;20020;-70
2021/01/03 05:23:22;;;;;;;;;;;;;;;-1.27;100.00;100873.81;5051689;28;19925;-70
2021/01/03 05:25:49;;;;;;;;;;;;;;;-1.26;100.00;100879.09;5049872;28;19925;-69
2021/01/03 05:28:19;;;;;;;;;;;;;;;-1.24;100.00;100874.59;5051525;28;19925;-70
2021/01/03 05:30:45;;;;;;;;;;;;;;;-1.23;100.00;100879.03;5051654;28;19932;-70
2021/01/03 05:33:12;;;;;;;;;;;;;;;-1.21;100.00;100869.16;5048510;28;20259;-70
2021/01/03 05:35:39;;;;;;;;;;;;;;;-1.19;100.00;100861.13;5050099;28;19968;-70
2021/01/03 05:38:05;;;;;;;;;;;;;;;-1.17;100.00;100853.97;5051174;28;19979;-70
2021/01/03 05:40:32;;;;;;;;;;;;;;;-1.15;100.00;100859.25;5051469;28;19971;-70
2021/01/03 05:43:13;;;;;;;;;;;;;;;-1.12;100.00;100861.81;5051505;28;20020;-70
2021/01/03 05:45:42;;;;;;;;;;;;;;;-1.10;100.00;100852.00;5051053;28;19971;-69
2021/01/03 05:48:17;;;;;;;;;;;;;;;-1.07;100.00;100859.88;5051533;28;19929;-69
2021/01/03 05:50:44;;;;;;;;;;;;;;;-1.06;100.00;100861.63;5051286;28;20015;-70
2021/01/03 05:53:14;;;;;;;;;;;;;;;-1.03;100.00;100861.53;5051305;28;20458;-70
2021/01/03 05:55:50;;;;;;;;;;;;;;;-1.01;100.00;100855.25;5051171;28;19944;-70
2021/01/03 05:58:18;;;;;;;;;;;;;;;-0.99;100.00;100855.19;5051153;28;19976;-70
2021/01/03 06:00:44;;;;;;;;;;;;;;;-0.98;100.00;100854.28;5051045;28;19959;-70
2021/01/03 06:03:15;;;;;;;;;;;;;;;-0.96;100.00;100859.56;5051108;28;20012;-70
2021/01/03 06:05:43;;;;;;;;;;;;;;;-0.93;100.00;100847.00;5051521;28;20403;-70
2021/01/03 06:08:12;;;;;;;;;;;;;;;-0.89;100.00;100847.78;5055225;28;19929;-70
2021/01/03 06:10:38;;;;;;;;;;;;;;;-0.87;100.00;100845.94;5055111;28;19968;-70
2021/01/03 06:13:05;;;;;;;;;;;;;;;-0.86;100.00;100845.88;5055068;28;19964;-70
2021/01/03 06:15:33;;;;;;;;;;;;;;;-0.83;100.00;100846.72;5054966;28;20015;-70
2021/01/03 06:18:00;;;;;;;;;;;;;;;-0.82;100.00;100837.81;5054935;28;20035;-69
2021/01/03 06:20:27;;;;;;;;;;;;;;;-0.79;100.00;100835.03;5054913;28;19956;-69
2021/01/03 06:22:55;;;;;;;;;;;;;;;-0.78;100.00;100839.44;5054619;28;19932;-70
2021/01/03 06:25:28;;;;;;;;;;;;;;;-0.77;100.00;100839.41;5054831;28;20019;-70
2021/01/03 06:27:59;;;;;;;;;;;;;;;-0.77;100.00;100838.53;5054591;28;20015;-69
2021/01/03 06:30:24;;;;;;;;;;;;;;;-0.75;100.00;100837.56;5054794;28;20409;-70
2021/01/03 06:33:12;;;;;;;;;;;;;;;-0.71;100.00;100841.00;5054765;28;19925;-70
2021/01/03 06:35:41;;;;;;;;;;;;;;;-0.69;100.00;100840.00;5054637;28;20471;-70
2021/01/03 06:38:12;;;;;;;;;;;;;;;-0.66;100.00;100833.72;5053340;28;19932;-70
2021/01/03 06:40:40;;;;;;;;;;;;;;;-0.65;100.00;100822.13;5054509;28;20520;-70
2021/01/03 06:43:18;;;;;;;;;;;;;;;-0.64;100.00;100815.88;5054198;28;19939;-69
2021/01/03 06:45:59;;;;;;;;;;;;;;;-0.61;100.00;100826.44;5054284;28;20406;-70
2021/01/03 06:48:32;;;;;;;;;;;;;;;-0.59;100.00;100818.38;5054416;28;19928;-70
2021/01/03 06:51:08;;;;;;;;;;;;;;;-0.59;100.00;100818.38;5054614;28;20016;-70
2021/01/03 06:53:53;;;;;;;;;;;;;;;-0.58;100.00;100820.13;5051587;28;20156;-69
2021/01/03 06:56:34;;;;;;;;;;;;;;;-0.58;100.00;100818.31;5048377;28;20413;-70
2021/01/03 06:59:13;;;;;;;;;;;;;;;-0.57;100.00;100819.22;5034353;28;20016;-69
2021/01/03 07:01:40;;;;;;;;;;;;;;;-0.58;100.00;100817.47;5042125;28;19978;-69
2021/01/03 07:04:09;;;;;;;;;;;;;;;-0.57;100.00;100821.88;5034176;28;19925;-70
2021/01/03 07:06:36;;;;;;;;;;;;;;;-0.58;100.00;100817.47;5039648;28;19956;-70
2021/01/03 07:09:04;;;;;;;;;;;;;;;-0.58;100.00;100823.66;5049318;28;20462;-70
2021/01/03 07:11:38;;;;;;;;;;;;;;;-0.57;100.00;100821.88;5034469;28;19932;-70
2021/01/03 07:14:04;;;;;;;;;;;;;;;-0.59;100.00;100824.59;5043833;28;20035;-69
2021/01/03 07:16:54;;;;;;;;;;;;;;;-0.58;100.00;100836.13;5053522;28;19932;-69
2021/01/03 07:19:36;;;;;;;;;;;;;;;-0.58;100.00;100825.47;5038145;28;20361;-69
2021/01/03 07:22:04;;;;;;;;;;;;;;;-0.59;100.00;100821.06;5039851;28;20015;-70
2021/01/03 07:24:32;;;;;;;;;;;;;;;-0.59;100.00;100818.38;5051967;28;19936;-70
2021/01/03 07:27:15;;;;;;;;;;;;;;;-0.58;100.00;100828.13;5050821;28;19978;-70
2021/01/03 07:29:48;;;;;;;;;;;;;;;-0.59;100.00;100821.94;5053765;28;19956;-70
2021/01/03 07:32:15;;;;;;;;;;;;;;;-0.60;100.00;100825.53;5053450;28;19984;-70
2021/01/03 07:34:41;;;;;;;;;;;;;;;-0.60;100.00;100827.28;5051652;28;19977;-70
2021/01/03 07:37:15;;;;;;;;;;;;;;;-0.62;100.00;100824.69;5053032;28;19929;-70
2021/01/03 07:39:55;;;;;;;;;;;;;;;-0.63;100.00;100824.75;5052040;28;19972;-70
2021/01/03 07:42:23;;;;;;;;;;;;;;;-0.63;100.00;100824.75;5053449;28;19925;-70
2021/01/03 07:44:50;;;;;;;;;;;;;;;-0.64;100.00;100823.88;5053200;28;19929;-70
2021/01/03 07:47:33;;;;;;;;;;;;;;;-0.64;100.00;100831.88;5053124;28;20366;-70
2021/01/03 07:50:19;;;;;;;;;;;;;;;-0.61;100.00;100830.91;5052758;28;19968;-69
2021/01/03 07:52:45;;;;;;;;;;;;;;;-0.60;100.00;100829.97;5052612;28;19959;-71
2021/01/03 07:55:15;;;;;;;;;;;;;;;-0.59;100.00;100832.59;5052712;28;20016;-68
2021/01/03 07:57:42;;;;;;;;;;;;;;;-0.59;100.00;100829.94;5045017;28;19929;-69
2021/01/03 08:00:09;;;;;;;;;;;;;;;-0.58;100.00;100828.13;5034754;28;20371;-69
2021/01/03 08:02:35;;;;;;;;;;;;;;;-0.58;100.00;100841.47;5047385;28;19969;-69
2021/01/03 08:05:01;;;;;;;;;;;;;;;-0.57;100.00;100841.41;5033042;28;20195;-69
2021/01/03 08:07:28;;;;;;;;;;;;;;;-0.55;100.00;100846.69;5043727;28;20085;-69
2021/01/03 08:09:54;;;;;;;;;;;;;;;-0.54;100.00;100848.44;5038364;28;20418;-69
2021/01/03 08:12:22;;;;;;;;;;;;;;;-0.55;100.00;100852.03;5043869;28;19925;-69
2021/01/03 08:14:49;;;;;;;;;;;;;;;-0.55;100.00;100839.56;5041321;28;20334;-69
2021/01/03 08:17:21;;;;;;;;;;;;;;;-0.56;100.00;100837.81;5044952;28;20019;-69
2021/01/03 08:19:47;;;;;;;;;;;;;;;-0.56;100.00;100843.16;5042716;28;20020;-69
2021/01/03 08:22:13;;;;;;;;;;;;;;;-0.55;100.00;100847.59;5044441;28;19929;-69
2021/01/03 08:24:39;;;;;;;;;;;;;;;-0.55;100.00;100850.25;5043165;28;19932;-69
2021/01/03 08:27:12;;;;;;;;;;;;;;;-0.55;100.00;100852.03;5039335;28;20345;-69
2021/01/03 08:29:41;;;;;;;;;;;;;;;-0.57;100.00;100846.75;5040894;28;19931;-69
2021/01/03 08:32:10;;;;;;;;;;;;;;;-0.55;100.00;100850.25;5042306;28;19961;-69
2021/01/03 08:34:37;;;;;;;;;;;;;;;-0.56;100.00;100850.28;5039035;28;19960;-69
2021/01/03 08:37:12;;;;;;;;;;;;;;;-0.57;100.00;100848.56;5029547;28;19980;-69
2021/01/03 08:39:37;;;;;;;;;;;;;;;-0.59;100.00;100858.38;5050303;28;20020;-69
2021/01/03 08:42:05;;;;;;;;;;;;;;;-0.62;100.00;100854.03;5051946;28;19925;-68
2021/01/03 08:44:33;;;;;;;;;;;;;;;-0.62;100.00;100846.03;5050630;28;19979;-68
2021/01/03 08:47:00;;;;;;;;;;;;;;;-0.63;100.00;100852.25;5051082;28;20026;-68
2021/01/03 08:49:26;;;;;;;;;;;;;;;-0.62;100.00;100856.69;5051830;28;19964;-68
2021/01/03 08:52:03;;;;;;;;;;;;;;;-0.63;100.00;100846.06;5051796;28;20055;-68
2021/01/03 08:54:29;;;;;;;;;;;;;;;-0.62;100.00;100855.81;5051733;28;19982;-67
2021/01/03 08:56:55;;;;;;;;;;;;;;;-0.61;100.00;100854.91;5051504;28;20346;-67
2021/01/03 08:59:21;;;;;;;;;;;;;;;-0.60;100.00;100854.84;5041093;28;19924;-67
2021/01/03 09:01:47;;;;;;;;;;;;;;;-0.60;100.00;100849.53;5046158;28;19931;-68
2021/01/03 09:04:14;;;;;;;;;;;;;;;-0.61;100.00;100857.56;5051200;28;19951;-67
2021/01/03 09:06:42;;;;;;;;;;;;;;;-0.61;100.00;100849.56;5051358;28;20473;-67
2021/01/03 09:09:09;;;;;;;;;;;;;;;-0.63;100.00;100854.94;5045531;28;20023;-67
2021/01/03 09:11:36;;;;;;;;;;;;;;;-0.63;100.00;100857.59;5049419;28;20031;-67
2021/01/03 09:14:03;;;;;;;;;;;;;;;-0.63;100.00;100859.41;5051337;28;19978;-67
2021/01/03 09:16:33;;;;;;;;;;;;;;;-0.64;100.00;100858.53;5050965;28;19960;-67
2021/01/03 09:19:02;;;;;;;;;;;;;;;-0.62;100.00;100850.50;5049967;28;19933;-68
2021/01/03 09:21:28;;;;;;;;;;;;;;;-0.61;100.00;100854.91;5030627;28;20016;-66
2021/01/03 09:23:59;;;;;;;;;;;;;;;-0.61;100.00;100855.78;5050475;28;20703;-66
2021/01/03 09:26:32;;;;;;;;;;;;;;;-0.59;100.00;100858.38;5048752;28;20338;-66
2021/01/03 09:29:04;;;;;;;;;;;;;;;-0.61;100.00;100858.44;5048952;28;20024;-66
2021/01/03 09:31:30;;;;;;;;;;;;;;;-0.60;100.00;100851.28;5051102;28;19968;-66
2021/01/03 09:34:11;;;;;;;;;;;;;;;-0.57;100.00;100859.22;5051435;28;19924;-66
2021/01/03 09:36:45;;;;;;;;;;;;;;;-0.56;100.00;100856.50;5050888;28;20020;-66
2021/01/03 09:39:32;;;;;;;;;;;;;;;-0.56;100.00;100853.84;5050973;28;20027;-66
2021/01/03 09:42:11;;;;;;;;;;;;;;;-0.52;100.00;100852.81;5050878;28;20016;-66
2021/01/03 09:44:41;;;;;;;;;;;;;;;-0.53;100.00;100855.53;5051416;28;19971;-66
2021/01/03 09:47:08;;;;;;;;;;;;;;;-0.49;100.00;100869.59;5050964;28;20015;-66
2021/01/03 09:49:43;;;;;;;;;;;;;;;-0.49;100.00;100861.59;5051075;28;20126;-67
2021/01/03 09:52:16;;;;;;;;;;;;;;;-0.48;100.00;100856.25;5051268;28;20027;-66
2021/01/03 09:54:46;;;;;;;;;;;;;;;-0.48;100.00;100858.03;5051121;28;20039;-66
2021/01/03 09:57:20;;;;;;;;;;;;;;;-0.47;100.00;100846.44;5050823;28;20023;-66
2021/01/03 09:59:53;;;;;;;;;;;;;;;-0.46;100.00;100850.84;5051206;28;20152;-66
2021/01/03 10:02:19;;;;;;;;;;;;;;;-0.47;100.00;100855.31;5051195;28;20019;-67
2021/01/03 10:04:45;;;;;;;;;;;;;;;-0.44;100.00;100844.56;5051063;28;19983;-66
2021/01/03 10:07:13;;;;;;;;;;;;;;;-0.43;100.00;100850.75;5050764;28;21087;-66
2021/01/03 10:09:39;;;;;;;;;;;;;;;-0.40;100.00;100855.97;5051019;28;19932;-67
2021/01/03 10:12:19;;;;;;;;;;;;;;;-0.40;100.00;100845.31;5051015;28;19968;-67
2021/01/03 10:14:45;;;;;;;;;;;;;;;-0.41;100.00;100849.78;5050890;28;20015;-67
2021/01/03 10:17:14;;;;;;;;;;;;;;;-0.41;100.00;100847.09;5050766;28;20382;-66
2021/01/03 10:19:40;;;;;;;;;;;;;;;-0.40;100.00;100845.31;5050932;28;20445;-67
2021/01/03 10:22:24;;;;;;;;;;;;;;;-0.40;100.00;100850.63;5050898;28;19932;-67
2021/01/03 10:24:54;;;;;;;;;;;;;;;-0.42;100.00;100844.50;5051038;28;19979;-67
2021/01/03 10:27:21;;;;;;;;;;;;;;;-0.43;100.00;100850.75;5049463;28;19925;-67
2021/01/03 10:29:46;;;;;;;;;;;;;;;-0.45;100.00;100840.13;5050764;28;20306;-67
2021/01/03 10:32:12;;;;;;;;;;;;;;;-0.39;100.00;100836.38;5050599;28;19929;-67
2021/01/03 10:34:38;;;;;;;;;;;;;;;-0.43;100.00;100842.75;5050860;28;19948;-67
2021/01/03 10:37:05;;;;;;;;;;;;;;;-0.44;100.00;100841.00;5050546;28;19931;-67
2021/01/03 10:39:31;;;;;;;;;;;;;;;-0.45;100.00;100836.59;5050697;28;19924;-67
2021/01/03 10:41:57;;;;;;;;;;;;;;;-0.44;100.00;100833.88;5050803;28;19978;-67
2021/01/03 10:44:24;;;;;;;;;;;;;;;-0.45;100.00;100820.59;5050782;28;20369;-67
2021/01/03 10:46:50;;;;;;;;;;;;;;;-0.42;100.00;100825.81;5050489;28;20015;-67
2021/01/03 10:49:16;;;;;;;;;;;;;;;-0.41;100.00;100822.25;5050255;28;19931;-67
2021/01/03 10:51:43;;;;;;;;;;;;;;;-0.39;100.00;100813.25;5051215;28;20053;-67
2021/01/03 10:54:10;;;;;;;;;;;;;;;-0.34;100.00;100803.28;5054328;28;19963;-67
2021/01/03 10:56:36;;;;;;;;;;;;;;;-0.31;100.00;100815.63;5054102;28;20019;-67
2021/01/03 10:59:02;;;;;;;;;;;;;;;-0.26;100.00;100811.03;5054063;28;19933;-67
2021/01/03 11:01:29;;;;;;;;;;;;;;;-0.23;100.00;100813.59;5054149;28;19925;-67
2021/01/03 11:03:55;;;;;;;;;;;;;;;-0.26;100.00;100808.34;5054306;28;19929;-67
2021/01/03 11:06:20;;;;;;;;;;;;;;;-0.25;100.00;100811.91;5053642;28;19933;-67
2021/01/03 11:08:46;;;;;;;;;;;;;;;-0.26;100.00;100813.69;5054146;28;19929;-67
2021/01/03 11:11:17;;;;;;;;;;;;;;;-0.26;100.00;100803.03;5053914;28;19925;-67
2021/01/03 11:13:43;;;;;;;;;;;;;;;-0.26;100.00;100802.16;5053984;28;19925;-67
2021/01/03 11:16:09;;;;;;;;;;;;;;;-0.27;100.00;100803.06;5052392;28;19956;-67
2021/01/03 11:18:36;;;;;;;;;;;;;;;-0.29;100.00;100795.13;5053759;28;19932;-67
2021/01/03 11:21:02;;;;;;;;;;;;;;;-0.30;100.00;100792.53;5053708;28;20410;-67
2021/01/03 11:23:27;;;;;;;;;;;;;;;-0.28;100.00;100798.66;5053472;28;19939;-67
2021/01/03 11:25:55;;;;;;;;;;;;;;;-0.30;100.00;100797.84;5053351;28;19932;-67
2021/01/03 11:28:21;;;;;;;;;;;;;;;-0.32;100.00;100797.03;5053524;28;19932;-67
2021/01/03 11:30:47;;;;;;;;;;;;;;;-0.32;100.00;100795.25;5052996;28;20011;-67
2021/01/03 11:33:12;;;;;;;;;;;;;;;-0.34;100.00;100799.75;5053501;28;19959;-67
2021/01/03 11:35:39;;;;;;;;;;;;;;;-0.31;100.00;100799.63;5049518;28;19932;-67
2021/01/03 11:38:05;;;;;;;;;;;;;;;-0.29;100.00;100779.13;5052645;28;20028;-67
2021/01/03 11:40:30;;;;;;;;;;;;;;;-0.30;100.00;100790.72;5052405;28;19928;-68
2021/01/03 11:42:57;;;;;;;;;;;;;;;-0.29;100.00;100787.13;5053326;28;20290;-67
2021/01/03 11:45:23;;;;;;;;;;;;;;;-0.24;100.00;100792.28;5053006;28;19956;-67
2021/01/03 11:47:49;;;;;;;;;;;;;;;-0.30;100.00;100785.38;5052982;28;20271;-69
2021/01/03 11:50:16;;;;;;;;;;;;;;;-0.26;100.00;100800.34;5053089;28;19935;-67
2021/01/03 11:52:43;;;;;;;;;;;;;;;-0.30;100.00;100797.84;5052645;28;20413;-67
2021/01/03 11:55:11;;;;;;;;;;;;;;;-0.28;100.00;100779.97;5052811;28;19932;-67
2021/01/03 11:57:37;;;;;;;;;;;;;;;-0.32;100.00;100795.25;5037317;28;19935;-67
2021/01/03 12:00:04;;;;;;;;;;;;;;;-0.31;100.00;100780.09;5045696;28;19925;-67
2021/01/03 12:02:37;;;;;;;;;;;;;;;-0.31;100.00;100796.97;5037007;28;19925;-67
2021/01/03 12:05:03;;;;;;;;;;;;;;;-0.31;100.00;100786.28;5046742;28;19925;-67
2021/01/03 12:07:29;;;;;;;;;;;;;;;-0.30;100.00;100793.38;5052142;28;19925;-67
2021/01/03 12:09:56;;;;;;;;;;;;;;;-0.27;100.00;100795.06;5051958;28;20464;-67
2021/01/03 12:12:22;;;;;;;;;;;;;;;-0.27;100.00;100793.25;5052340;28;20335;-67
2021/01/03 12:14:48;;;;;;;;;;;;;;;-0.24;100.00;100792.28;5052190;28;20027;-67
2021/01/03 12:17:15;;;;;;;;;;;;;;;-0.23;100.00;100794.94;5051843;28;20023;-68
2021/01/03 12:19:41;;;;;;;;;;;;;;;-0.26;100.00;100797.69;5052203;28;19968;-68
2021/01/03 12:22:07;;;;;;;;;;;;;;;-0.28;100.00;100791.53;5051350;28;19925;-68
2021/01/03 12:24:34;;;;;;;;;;;;;;;-0.28;100.00;100790.66;5052109;28;19925;-67
2021/01/03 12:27:00;;;;;;;;;;;;;;;-0.30;100.00;100797.84;5049968;28;19924;-67
2021/01/03 12:29:26;;;;;;;;;;;;;;;-0.30;100.00;100780.03;5052485;28;19969;-67
2021/01/03 12:31:54;;;;;;;;;;;;;;;-0.31;100.00;100791.63;5052523;28;19931;-67
2021/01/03 12:34:21;;;;;;;;;;;;;;;-0.29;100.00;100788.94;5052738;28;20418;-68